Hlavní strana
METAR-TAF:

METAR-TAF

Letiště :

Albany, Georgie, Spojené státy americké

zeměpisná šířka: 31-32-08N, zeměpisná délka: 084-11-40W, výška: 60 m

Aktuální stav počasí

Zpráva byla vytvořena před 26 minutami, v 01:53 UTC
Bezvětří
Teplota 19°C
Vlhkost vzduchu 83%
Tlak 1018 hPa
Viditelnost: 16.1 km
Jasno

METAR: KABY 060153Z AUTO 00000KT 10SM CLR 19/16 A3005 RMK AO2 SLP175 T01890156

Čas: 22:19 (02:19 UTC)

Předpověď počasí

Zpráva byla vytvořena před 2 hodinami a 59 minutami, v 23:20 UTC
Předpověď platná od 06 v 00 UTC do 06 v 24 UTC
Severní vítr kt
Viditelnost: 10 km
Skoro jasno ve výšce 25000 ft
Od 06 v 1200 UTC
vítr z různých směrů 3 kt
Viditelnost: 10 km
Oblačno až skoro zataženo ve výšce 25000 ft

TAF: KABY 052320Z 0600/0624 00000KT P6SM FEW250 FM061200 VRB03KT P6SM BKN250

Stav a předpovědi počasí z více než 4 000 letišť (zprávy METAR a TAF).

Červené a žluté tečky na mapě představují dostupné meteorologické stanice.

Když kurzor umístíte na tečku, zobrazí se název stanice.

Pak kliknutím zobrazíte stav a předpověď počasí.

Chcete-li změnit mapu, kliknutím na zelené tlačítko se znaménkem +mapu přiblížíte, kliknutím na zelené tlačítko se znaménkem – mapu oddálíte a kliknutím na zelené šipky přejdete na sousední mapy.


METAR-TAF: